Time;durP1;ratioP1;P1;durP2;ratioP2;P2;SDS_P1;SDS_P2;PMS_P1;PMS_P2;Temp;Humidity;BMP_temperature;BMP_pressure;BME280_temperature;BME280_humidity;BME280_pressure;Samples;Min_cycle;Max_cycle;Signal;HPM_P1;HPM_P2
2022/11/14 00:00:38;;;;;;;43.60;31.53;;;7.60;99.90;;;;;;4993939;28;20171;-68
2022/11/14 00:03:06;;;;;;;51.07;32.80;;;7.60;99.90;;;;;;4993729;28;20175;-68
2022/11/14 00:05:32;;;;;;;49.80;34.17;;;7.60;99.90;;;;;;4992621;28;20198;-68
2022/11/14 00:07:58;;;;;;;49.10;33.37;;;7.60;99.90;;;;;;4993697;28;20561;-68
2022/11/14 00:10:23;;;;;;;53.27;33.93;;;7.50;99.90;;;;;;4993273;28;20175;-69
2022/11/14 00:12:49;;;;;;;48.20;33.50;;;7.40;99.90;;;;;;4993750;28;20172;-69
2022/11/14 00:15:16;;;;;;;43.20;33.23;;;7.40;99.90;;;;;;4992546;28;20171;-67
2022/11/14 00:17:44;;;;;;;49.10;33.60;;;7.40;99.90;;;;;;4993691;28;20229;-68
2022/11/14 00:20:11;;;;;;;43.37;31.33;;;7.40;99.90;;;;;;4993746;28;20229;-67
2022/11/14 00:22:41;;;;;;;43.70;31.93;;;7.30;99.90;;;;;;4993774;28;20179;-68
2022/11/14 00:25:08;;;;;;;44.70;31.77;;;7.30;99.90;;;;;;4993370;28;20655;-68
2022/11/14 00:27:34;;;;;;;43.25;32.60;;;7.20;99.90;;;;;;4995803;28;20643;-68
2022/11/14 00:29:59;;;;;;;39.00;30.43;;;7.20;99.90;;;;;;4997642;28;20178;-68
2022/11/14 00:32:25;;;;;;;40.27;30.27;;;7.20;99.90;;;;;;4997743;28;20218;-68
2022/11/14 00:34:50;;;;;;;40.60;30.93;;;7.10;99.90;;;;;;4997054;28;20707;-68
2022/11/14 00:37:16;;;;;;;40.00;30.83;;;7.10;99.90;;;;;;4997518;28;20171;-68
2022/11/14 00:39:42;;;;;;;42.67;32.37;;;7.10;99.90;;;;;;4995942;28;20274;-68
2022/11/14 00:42:08;;;;;;;43.93;32.03;;;7.10;99.90;;;;;;4997387;28;20174;-68
2022/11/14 00:44:33;;;;;;;44.73;32.17;;;7.00;99.90;;;;;;4997182;28;20588;-68
2022/11/14 00:46:59;;;;;;;40.43;30.30;;;7.10;99.90;;;;;;4997228;28;20171;-67
2022/11/14 00:49:24;;;;;;;43.03;31.13;;;7.10;99.90;;;;;;4996200;28;20577;-68
2022/11/14 00:51:50;;;;;;;41.77;30.23;;;7.00;99.90;;;;;;4995907;28;20175;-68
2022/11/14 00:54:15;;;;;;;40.37;30.53;;;7.10;99.90;;;;;;4996759;28;20266;-68
2022/11/14 00:56:41;;;;;;;42.77;30.43;;;7.10;99.90;;;;;;4995989;28;20179;-68
2022/11/14 00:59:07;;;;;;;41.80;31.07;;;7.10;99.90;;;;;;4997017;28;20183;-68
2022/11/14 01:01:33;;;;;;;42.67;30.07;;;7.00;99.90;;;;;;4996906;28;20175;-68
2022/11/14 01:03:58;;;;;;;38.33;29.30;;;7.00;99.90;;;;;;4995663;28;20179;-68
2022/11/14 01:06:27;;;;;;;39.00;30.53;;;6.90;99.90;;;;;;4996821;28;20302;-68
2022/11/14 01:08:52;;;;;;;40.07;28.87;;;7.00;99.90;;;;;;4996510;28;20246;-68
2022/11/14 01:11:22;;;;;;;41.00;29.60;;;6.90;99.90;;;;;;4996730;28;20191;-68
2022/11/14 01:13:48;;;;;;;38.10;28.73;;;6.90;99.90;;;;;;4996748;28;20178;-68
2022/11/14 01:16:14;;;;;;;37.13;27.90;;;6.90;99.90;;;;;;4996929;28;20171;-68
2022/11/14 01:18:40;;;;;;;36.70;28.00;;;6.90;99.90;;;;;;4996649;28;20187;-68
2022/11/14 01:21:08;;;;;;;38.17;28.00;;;6.90;99.90;;;;;;4996657;28;20175;-67
2022/11/14 01:23:35;;;;;;;37.80;29.60;;;6.90;99.90;;;;;;4996288;28;20176;-68
2022/11/14 01:26:06;;;;;;;37.83;29.20;;;6.90;99.90;;;;;;4996602;28;20198;-68
2022/11/14 01:28:31;;;;;;;40.50;29.80;;;6.80;99.90;;;;;;4996463;28;20211;-68
2022/11/14 01:31:14;;;;;;;43.00;28.17;;;6.70;99.90;;;;;;4996508;28;20178;-68
2022/11/14 01:33:39;;;;;;;36.97;29.17;;;6.80;99.90;;;;;;4995199;28;20705;-68
2022/11/14 01:36:06;;;;;;;38.60;28.30;;;6.80;99.90;;;;;;4994967;28;20281;-68
2022/11/14 01:38:35;;;;;;;38.13;28.53;;;6.70;99.90;;;;;;4995905;28;20171;-68
2022/11/14 01:41:01;;;;;;;40.13;28.07;;;6.60;99.90;;;;;;4996412;28;20182;-68
2022/11/14 01:43:37;;;;;;;37.80;28.63;;;6.60;99.90;;;;;;4996269;28;20521;-68
2022/11/14 01:46:07;;;;;;;37.97;28.53;;;6.60;99.90;;;;;;4996320;28;20254;-67
2022/11/14 01:48:42;;;;;;;38.43;28.33;;;6.60;99.90;;;;;;4996117;28;20211;-68
2022/11/14 01:51:20;;;;;;;36.67;27.97;;;6.60;99.90;;;;;;4995960;28;20246;-67
2022/11/14 01:53:49;;;;;;;38.33;27.93;;;6.50;99.90;;;;;;4995991;28;20659;-68
2022/11/14 01:56:20;;;;;;;36.57;27.90;;;6.50;99.90;;;;;;4995942;28;20172;-68
2022/11/14 01:58:52;;;;;;;36.57;27.33;;;6.40;99.90;;;;;;4995914;28;20193;-69
2022/11/14 02:01:17;;;;;;;37.37;29.23;;;6.40;99.90;;;;;;4995972;28;20642;-69
2022/11/14 02:03:49;;;;;;;37.93;27.93;;;6.40;99.90;;;;;;4995924;28;20186;-69
2022/11/14 02:06:19;;;;;;;38.63;29.23;;;6.40;99.90;;;;;;4994264;28;20175;-68
2022/11/14 02:08:45;;;;;;;36.73;29.27;;;6.40;99.90;;;;;;4994358;28;20207;-67
2022/11/14 02:11:11;;;;;;;35.30;27.17;;;6.40;99.90;;;;;;4994026;28;20266;-68
2022/11/14 02:13:37;;;;;;;36.07;28.33;;;6.40;99.90;;;;;;4995653;28;20179;-68
2022/11/14 02:16:06;;;;;;;37.77;28.13;;;6.30;99.90;;;;;;4995773;28;20178;-68
2022/11/14 02:18:32;;;;;;;36.50;27.27;;;6.30;99.90;;;;;;4995578;28;20160;-68
2022/11/14 02:21:03;;;;;;;37.37;28.13;;;6.30;99.90;;;;;;4995175;28;20179;-68
2022/11/14 02:23:31;;;;;;;37.50;28.30;;;6.30;99.90;;;;;;4995423;28;20171;-68
2022/11/14 02:25:57;;;;;;;42.20;26.97;;;6.30;99.90;;;;;;4995290;28;20178;-68
2022/11/14 02:28:25;;;;;;;41.57;29.40;;;6.40;99.90;;;;;;4995423;28;20199;-68
2022/11/14 02:30:51;;;;;;;38.43;28.87;;;6.50;99.90;;;;;;4995354;28;20163;-69
2022/11/14 02:33:17;;;;;;;39.07;29.57;;;6.50;99.90;;;;;;4995348;28;20539;-68
2022/11/14 02:35:46;;;;;;;40.07;29.23;;;6.50;99.90;;;;;;4994821;28;20219;-68
2022/11/14 02:38:12;;;;;;;44.00;30.17;;;6.50;99.90;;;;;;4994994;28;20168;-67
2022/11/14 02:40:37;;;;;;;44.20;31.30;;;6.60;99.90;;;;;;4995314;28;20253;-68
2022/11/14 02:43:04;;;;;;;39.77;30.33;;;6.60;99.90;;;;;;4995245;28;20181;-68
2022/11/14 02:45:29;;;;;;;36.30;29.03;;;6.50;99.90;;;;;;4995045;28;20677;-68
2022/11/14 02:47:55;;;;;;;41.90;30.30;;;6.40;99.90;;;;;;4994881;28;20168;-68
2022/11/14 02:50:20;;;;;;;43.10;29.43;;;6.40;99.90;;;;;;4994095;28;20546;-68
2022/11/14 02:52:46;;;;;;;40.57;29.87;;;6.40;99.90;;;;;;4994738;28;20206;-68
2022/11/14 02:55:11;;;;;;;37.33;29.47;;;6.40;99.90;;;;;;4994967;28;20182;-68
2022/11/14 02:57:37;;;;;;;39.37;29.83;;;6.50;99.90;;;;;;4994754;28;20175;-68
2022/11/14 03:00:04;;;;;;;39.77;30.40;;;6.50;99.90;;;;;;4994733;28;20179;-68
2022/11/14 03:02:30;;;;;;;39.33;29.33;;;6.50;99.90;;;;;;4994694;28;20194;-68
2022/11/14 03:04:55;;;;;;;35.10;26.97;;;6.40;99.90;;;;;;4994388;28;20607;-68
2022/11/14 03:07:21;;;;;;;38.87;29.23;;;6.50;99.90;;;;;;4994643;28;20195;-67
2022/11/14 03:09:46;;;;;;;35.43;28.77;;;6.50;99.90;;;;;;4994511;28;20608;-68
2022/11/14 03:12:15;;;;;;;36.27;28.13;;;6.60;99.90;;;;;;4994569;28;20254;-69
2022/11/14 03:14:41;;;;;;;36.40;27.63;;;6.60;99.90;;;;;;4994597;28;20195;-68
2022/11/14 03:17:06;;;;;;;38.17;27.83;;;6.50;99.90;;;;;;4993437;28;20559;-68
2022/11/14 03:19:32;;;;;;;37.23;26.83;;;6.50;99.90;;;;;;4994384;28;20179;-68
2022/11/14 03:21:57;;;;;;;33.80;26.67;;;6.40;99.90;;;;;;4994293;28;20218;-68
2022/11/14 03:24:23;;;;;;;34.30;26.70;;;6.30;99.90;;;;;;4994251;28;20172;-68
2022/11/14 03:26:48;;;;;;;33.97;25.57;;;6.30;99.90;;;;;;4994297;28;20218;-68
2022/11/14 03:29:14;;;;;;;35.60;26.10;;;6.30;99.90;;;;;;4994225;28;20211;-68
2022/11/14 03:31:40;;;;;;;33.17;25.43;;;6.40;99.90;;;;;;4994314;28;20175;-68
2022/11/14 03:34:05;;;;;;;37.10;26.27;;;6.30;99.90;;;;;;4993745;28;20230;-68
2022/11/14 03:36:31;;;;;;;35.20;26.20;;;6.40;99.90;;;;;;4994012;28;20712;-68
2022/11/14 03:38:56;;;;;;;32.83;25.40;;;6.40;99.90;;;;;;4994171;28;20531;-68
2022/11/14 03:41:22;;;;;;;34.40;24.67;;;6.30;99.90;;;;;;4993951;28;20182;-67
2022/11/14 03:43:47;;;;;;;33.20;23.93;;;6.10;99.90;;;;;;4994082;28;20178;-68
2022/11/14 03:46:13;;;;;;;34.23;25.17;;;6.10;99.90;;;;;;4994051;28;20197;-67
2022/11/14 03:48:39;;;;;;;30.43;24.47;;;6.10;99.90;;;;;;4993538;28;20203;-67
2022/11/14 03:51:04;;;;;;;33.43;25.23;;;6.10;99.90;;;;;;4993679;28;20175;-68
2022/11/14 03:53:30;;;;;;;36.10;25.00;;;6.00;99.90;;;;;;4992557;28;20190;-68
2022/11/14 03:55:58;;;;;;;31.50;25.23;;;6.00;99.90;;;;;;4993644;28;20187;-67
2022/11/14 03:58:27;;;;;;;37.63;25.23;;;5.80;99.90;;;;;;4993296;28;20526;-68
2022/11/14 04:00:54;;;;;;;36.10;24.37;;;5.90;99.90;;;;;;4992032;28;20176;-67
2022/11/14 04:03:21;;;;;;;36.43;24.93;;;5.90;99.90;;;;;;4993332;28;20689;-68
2022/11/14 04:05:46;;;;;;;34.47;25.50;;;5.90;99.90;;;;;;4993656;28;20185;-68
2022/11/14 04:08:15;;;;;;;31.30;24.90;;;5.90;99.90;;;;;;4993655;28;20293;-69
2022/11/14 04:10:46;;;;;;;32.07;24.97;;;5.80;99.90;;;;;;4992409;28;20178;-68
2022/11/14 04:13:12;;;;;;;30.73;24.87;;;5.80;99.90;;;;;;4993692;28;20195;-68
2022/11/14 04:15:37;;;;;;;34.67;26.03;;;5.70;99.90;;;;;;4993581;28;20199;-68
2022/11/14 04:18:03;;;;;;;36.83;25.83;;;5.70;99.90;;;;;;4993164;28;20182;-68
2022/11/14 04:20:28;;;;;;;35.27;26.23;;;5.70;99.90;;;;;;4993109;28;20531;-68
2022/11/14 04:22:57;;;;;;;34.43;26.70;;;5.60;99.90;;;;;;4993476;28;20247;-68
2022/11/14 04:25:22;;;;;;;35.30;26.87;;;5.50;99.90;;;;;;4993656;28;20159;-68
2022/11/14 04:27:48;;;;;;;34.90;26.20;;;5.50;99.90;;;;;;4993459;28;20179;-69
2022/11/14 04:30:13;;;;;;;36.83;27.63;;;5.50;99.90;;;;;;4993273;28;20187;-68
2022/11/14 04:32:47;;;;;;;39.20;28.03;;;5.50;99.90;;;;;;4993194;28;20293;-68
2022/11/14 04:35:12;;;;;;;36.77;27.37;;;5.50;99.90;;;;;;4993030;28;20714;-68
2022/11/14 04:37:38;;;;;;;38.33;28.23;;;5.50;99.90;;;;;;4993508;28;20171;-68
2022/11/14 04:40:04;;;;;;;36.83;26.27;;;5.50;99.90;;;;;;4992123;28;20635;-68
2022/11/14 04:42:30;;;;;;;36.07;26.93;;;5.50;99.90;;;;;;4993055;28;20210;-68
2022/11/14 04:44:58;;;;;;;36.17;27.27;;;5.40;99.90;;;;;;4993237;28;20214;-66
2022/11/14 04:47:24;;;;;;;40.20;28.03;;;5.40;99.90;;;;;;4993821;28;20175;-68
2022/11/14 04:49:49;;;;;;;36.77;28.13;;;5.50;99.90;;;;;;4993315;28;20678;-68
2022/11/14 04:52:15;;;;;;;44.93;30.10;;;5.50;99.90;;;;;;4992929;28;20620;-68
2022/11/14 04:54:44;;;;;;;41.70;29.50;;;5.60;99.90;;;;;;4991532;28;20230;-68
2022/11/14 04:57:09;;;;;;;39.17;29.47;;;5.60;99.90;;;;;;4993187;28;20202;-68
2022/11/14 04:59:35;;;;;;;42.70;30.77;;;5.60;99.90;;;;;;4992535;28;20643;-68
2022/11/14 05:02:00;;;;;;;40.60;29.30;;;5.70;99.90;;;;;;4993265;28;20246;-68
2022/11/14 05:04:26;;;;;;;41.83;29.77;;;5.60;99.90;;;;;;4992427;28;20179;-68
2022/11/14 05:06:54;;;;;;;40.77;28.67;;;5.70;99.90;;;;;;4992484;28;20257;-67
2022/11/14 05:09:20;;;;;;;44.37;29.37;;;5.70;99.90;;;;;;4992661;28;20675;-68
2022/11/14 05:11:46;;;;;;;39.50;28.83;;;5.70;99.90;;;;;;4991441;28;20218;-67
2022/11/14 05:14:14;;;;;;;39.10;27.93;;;5.70;99.90;;;;;;4995435;28;20542;-68
2022/11/14 05:16:40;;;;;;;40.73;27.47;;;5.70;99.90;;;;;;4996574;28;20172;-68
2022/11/14 05:19:05;;;;;;;34.83;26.00;;;5.70;99.90;;;;;;4995338;28;20658;-68
2022/11/14 05:21:34;;;;;;;37.93;27.13;;;5.70;99.90;;;;;;4996352;28;20179;-68
2022/11/14 05:24:00;;;;;;;38.07;27.10;;;5.80;99.90;;;;;;4996224;28;20198;-68
2022/11/14 05:26:25;;;;;;;37.20;26.27;;;5.70;99.90;;;;;;4994457;28;20631;-69
2022/11/14 05:28:51;;;;;;;31.70;21.77;;;5.70;99.90;;;;;;4995640;28;20218;-69
2022/11/14 05:31:16;;;;;;;34.00;24.40;;;5.80;99.90;;;;;;4996019;28;20179;-68
2022/11/14 05:33:43;;;;;;;36.00;23.13;;;5.80;99.90;;;;;;4995871;28;20720;-67
2022/11/14 05:36:11;;;;;;;35.23;25.47;;;5.90;99.90;;;;;;4996003;28;20219;-69
2022/11/14 05:38:37;;;;;;;25.47;20.30;;;5.90;99.90;;;;;;4995859;28;20202;-68
2022/11/14 05:41:07;;;;;;;29.50;21.70;;;5.80;99.90;;;;;;4995567;28;20635;-68
2022/11/14 05:43:33;;;;;;;32.80;23.40;;;5.80;99.90;;;;;;4995677;28;20193;-68
2022/11/14 05:46:00;;;;;;;26.60;21.07;;;5.70;99.90;;;;;;4995563;28;20168;-68
2022/11/14 05:48:26;;;;;;;28.80;20.87;;;5.70;99.90;;;;;;4995819;28;20231;-67
2022/11/14 05:51:02;;;;;;;27.97;20.37;;;5.70;99.90;;;;;;4995653;28;20257;-68
2022/11/14 05:53:30;;;;;;;28.63;19.73;;;5.70;99.90;;;;;;4995336;28;20168;-68
2022/11/14 05:56:09;;;;;;;27.67;20.30;;;5.70;99.90;;;;;;4995276;28;20207;-69
2022/11/14 05:58:35;;;;;;;27.37;19.83;;;5.70;99.90;;;;;;4995240;28;20175;-69
2022/11/14 06:01:08;;;;;;;32.80;21.60;;;5.70;99.90;;;;;;4995307;28;20258;-69
2022/11/14 06:03:38;;;;;;;28.73;21.33;;;5.70;99.90;;;;;;4995401;28;20178;-68
2022/11/14 06:06:06;;;;;;;28.40;20.63;;;5.50;99.90;;;;;;4995190;28;20225;-68
2022/11/14 06:08:33;;;;;;;28.67;19.17;;;5.50;99.90;;;;;;4993431;28;20307;-69
2022/11/14 06:11:25;;;;;;;24.07;18.73;;;5.50;99.90;;;;;;4994944;28;20168;-68
2022/11/14 06:13:56;;;;;;;27.00;18.70;;;5.60;99.90;;;;;;4993455;28;20257;-68
2022/11/14 06:16:25;;;;;;;32.83;19.53;;;5.60;99.90;;;;;;4994808;28;20171;-69
2022/11/14 06:18:54;;;;;;;29.87;20.83;;;5.60;99.90;;;;;;4994440;28;20210;-69
2022/11/14 06:21:22;;;;;;;32.17;20.90;;;5.60;99.90;;;;;;4993336;28;20190;-69
2022/11/14 06:23:48;;;;;;;30.13;21.00;;;5.60;99.90;;;;;;4993678;28;20176;-68
2022/11/14 06:26:23;;;;;;;33.20;22.07;;;5.60;99.90;;;;;;4994492;28;20178;-69
2022/11/14 06:28:52;;;;;;;30.97;20.83;;;5.70;99.90;;;;;;4993821;28;20206;-68
2022/11/14 06:31:21;;;;;;;32.57;20.37;;;5.70;99.90;;;;;;4994577;28;20167;-68
2022/11/14 06:33:50;;;;;;;34.83;20.37;;;5.70;99.90;;;;;;4992656;28;20274;-70
2022/11/14 06:36:19;;;;;;;30.07;19.50;;;5.70;99.90;;;;;;4994064;28;20186;-69
2022/11/14 06:38:45;;;;;;;28.53;19.83;;;5.70;99.90;;;;;;4994233;28;20187;-68
2022/11/14 06:41:13;;;;;;;32.63;19.93;;;5.70;99.90;;;;;;4993552;28;20674;-68
2022/11/14 06:43:41;;;;;;;28.10;19.00;;;5.60;99.90;;;;;;4994213;28;20262;-68
2022/11/14 06:46:08;;;;;;;29.17;19.03;;;5.60;99.90;;;;;;4992401;28;20172;-69
2022/11/14 06:48:34;;;;;;;28.23;18.80;;;5.60;99.90;;;;;;4993585;28;20247;-70
2022/11/14 06:51:01;;;;;;;27.53;18.10;;;5.60;99.90;;;;;;4992014;28;20555;-69
2022/11/14 06:53:29;;;;;;;30.27;19.40;;;5.60;99.90;;;;;;4994010;28;20254;-69
2022/11/14 06:56:03;;;;;;;25.70;18.07;;;5.60;99.90;;;;;;4993328;28;20282;-69
2022/11/14 06:58:31;;;;;;;30.17;17.97;;;5.60;99.90;;;;;;4993567;28;20168;-69
2022/11/14 07:01:12;;;;;;;29.57;18.97;;;5.70;99.90;;;;;;4992863;28;20230;-69
2022/11/14 07:03:38;;;;;;;31.60;18.93;;;5.70;99.90;;;;;;4993404;28;20163;-70
2022/11/14 07:06:05;;;;;;;33.57;19.00;;;5.70;99.90;;;;;;4992874;28;20287;-69
2022/11/14 07:08:31;;;;;;;24.97;18.20;;;5.80;99.90;;;;;;4993677;28;20285;-69
2022/11/14 07:11:04;;;;;;;29.90;19.97;;;5.80;99.90;;;;;;4992668;28;20274;-70
2022/11/14 07:13:31;;;;;;;32.57;19.33;;;5.80;99.90;;;;;;4993839;28;20167;-69
2022/11/14 07:15:57;;;;;;;28.67;19.67;;;5.90;99.90;;;;;;4993262;28;20164;-69
2022/11/14 07:18:23;;;;;;;32.77;19.87;;;5.90;99.90;;;;;;4993392;28;20164;-68
2022/11/14 07:21:03;;;;;;;31.73;19.17;;;5.90;99.90;;;;;;4993663;28;20366;-68
2022/11/14 07:23:30;;;;;;;32.33;19.10;;;5.90;99.90;;;;;;4992821;28;20266;-69
2022/11/14 07:26:05;;;;;;;34.67;18.53;;;5.90;99.90;;;;;;4991528;28;20195;-69
2022/11/14 07:28:32;;;;;;;26.57;18.40;;;6.00;99.90;;;;;;4989800;28;20714;-68
2022/11/14 07:30:58;;;;;;;26.57;18.20;;;6.30;99.90;;;;;;4987663;28;20183;-68
2022/11/14 07:33:24;;;;;;;32.23;17.47;;;6.80;99.90;;;;;;4991093;28;21009;-69
2022/11/14 07:35:50;;;;;;;28.77;16.90;;;7.40;99.90;;;;;;4991651;28;20289;-69
2022/11/14 07:38:16;;;;;;;40.47;16.60;;;8.00;99.90;;;;;;4990858;28;20179;-70
2022/11/14 07:40:41;;;;;;;31.50;16.30;;;9.10;99.90;;;;;;4989835;28;20265;-68
2022/11/14 07:43:07;;;;;;;29.20;16.20;;;10.10;99.90;;;;;;4992102;28;20276;-69
2022/11/14 07:45:32;;;;;;;33.47;15.80;;;11.00;99.90;;;;;;4993058;28;20211;-69
2022/11/14 07:48:00;;;;;;;36.80;17.37;;;12.00;99.90;;;;;;4992485;28;20187;-70
2022/11/14 07:50:28;;;;;;;31.93;17.67;;;12.60;99.90;;;;;;4992835;28;20179;-69
2022/11/14 07:52:56;;;;;;;31.40;17.20;;;13.50;99.90;;;;;;4991198;28;20214;-70
2022/11/14 07:55:22;;;;;;;30.53;15.60;;;14.40;99.90;;;;;;4992325;28;20253;-69
2022/11/14 07:57:52;;;;;;;31.27;17.70;;;15.20;99.90;;;;;;4991700;28;20202;-69
2022/11/14 08:00:17;;;;;;;28.50;15.90;;;15.50;99.90;;;;;;4992506;28;20662;-68
2022/11/14 08:02:45;;;;;;;28.27;15.67;;;15.70;99.30;;;;;;4992102;28;20258;-69
2022/11/14 08:05:10;;;;;;;36.30;16.60;;;15.90;98.10;;;;;;4992555;28;20201;-71
2022/11/14 08:07:36;;;;;;;32.13;17.08;;;16.50;96.50;;;;;;4991733;28;20639;-70
2022/11/14 08:10:02;;;;;;;33.67;16.45;;;17.20;95.10;;;;;;4992500;28;20249;-70
2022/11/14 08:12:27;;;;;;;22.98;14.90;;;17.50;93.30;;;;;;4992225;28;20167;-70
2022/11/14 08:14:56;;;;;;;20.63;13.88;;;17.90;91.70;;;;;;4992220;28;20639;-70
2022/11/14 08:17:24;;;;;;;26.05;15.30;;;18.30;90.60;;;;;;4992911;28;20258;-70
2022/11/14 08:19:49;;;;;;;21.35;13.82;;;19.00;87.20;;;;;;4992690;28;20176;-71
2022/11/14 08:22:15;;;;;;;16.30;13.00;;;19.20;84.10;;;;;;4990796;28;20214;-72
2022/11/14 08:24:43;;;;;;;21.42;12.93;;;19.70;80.00;;;;;;4992521;28;20179;-71
2022/11/14 08:27:09;;;;;;;16.70;10.75;;;19.60;76.20;;;;;;4992397;28;20206;-71
2022/11/14 08:29:35;;;;;;;17.52;10.88;;;18.80;1.00;;;;;;4992230;28;20211;-71
2022/11/14 08:32:00;;;;;;;14.75;10.73;;;18.90;74.80;;;;;;4993102;28;20175;-71
2022/11/14 08:34:27;;;;;;;15.88;11.07;;;17.90;81.00;;;;;;4992209;28;20749;-71
2022/11/14 08:36:55;;;;;;;16.70;11.45;;;17.90;81.90;;;;;;4991784;28;20171;-70
2022/11/14 08:39:21;;;;;;;15.93;12.15;;;18.20;81.20;;;;;;4992594;28;20635;-71
2022/11/14 08:41:47;;;;;;;18.05;11.82;;;19.00;78.40;;;;;;4992941;28;20230;-71
2022/11/14 08:44:15;;;;;;;14.75;10.98;;;19.00;76.50;;;;;;4984920;28;20214;-72
2022/11/14 08:46:41;;;;;;;16.95;11.23;;;19.30;73.00;;;;;;4984437;28;20180;-75
2022/11/14 08:49:07;;;;;;;13.75;10.95;;;19.20;72.20;;;;;;4994477;28;20273;-72
2022/11/14 08:51:32;;;;;;;19.20;11.23;;;19.70;1.00;;;;;;4995903;28;20175;-72
2022/11/14 08:53:58;;;;;;;18.95;11.50;;;19.60;1.00;;;;;;4996152;28;20171;-72
2022/11/14 08:56:23;;;;;;;14.10;11.52;;;20.10;1.00;;;;;;4995911;28;20174;-70
2022/11/14 08:58:50;;;;;;;17.45;10.93;;;20.30;1.00;;;;;;4994984;28;20258;-72
2022/11/14 09:01:21;;;;;;;17.10;11.52;;;20.60;1.00;;;;;;4995368;28;20176;-72
2022/11/14 09:03:47;;;;;;;13.45;11.65;;;21.00;99.90;;;;;;4993795;28;20179;-72
2022/11/14 09:06:12;;;;;;;16.35;11.23;;;21.10;99.90;;;;;;4992796;28;20658;-73
2022/11/14 09:08:38;;;;;;;17.10;12.05;;;21.10;99.90;;;;;;4995006;28;20277;-73
2022/11/14 09:11:05;;;;;;;15.20;10.57;;;20.40;1.00;;;;;;4995623;28;20170;-71
2022/11/14 09:13:33;;;;;;;16.50;11.68;;;20.20;1.00;;;;;;4992313;28;20202;-73
2022/11/14 09:15:58;;;;;;;18.55;11.68;;;20.00;1.00;;;;;;4976878;28;20187;-73
2022/11/14 09:18:24;;;;;;;16.50;12.10;;;20.30;1.00;;;;;;4976270;28;20256;-72
2022/11/14 09:20:49;;;;;;;20.55;13.57;;;21.20;99.90;;;;;;4975766;28;20508;-72
2022/11/14 09:23:15;;;;;;;19.75;12.05;;;21.30;99.90;;;;;;4976256;28;20219;-74
2022/11/14 09:25:41;;;;;;;19.48;12.05;;;21.40;99.90;;;;;;4986613;28;20643;-73
2022/11/14 09:28:07;;;;;;;18.33;11.80;;;21.10;99.90;;;;;;4989226;28;20256;-72
2022/11/14 09:30:35;;;;;;;16.67;12.90;;;21.10;99.90;;;;;;4979706;28;20187;-73
2022/11/14 09:33:02;;;;;;;16.60;12.48;;;21.40;99.90;;;;;;4976835;28;20192;-72
2022/11/14 09:35:31;;;;;;;16.52;13.05;;;20.80;99.90;;;;;;4995418;28;20219;-73
2022/11/14 09:38:07;;;;;;;19.63;12.38;;;21.10;99.90;;;;;;4982548;28;20218;-75
2022/11/14 09:40:54;;;;;;;15.73;12.07;;;20.30;99.90;;;;;;4984482;28;20274;-75
2022/11/14 09:43:41;;;;;;;13.75;11.63;;;20.40;99.90;;;;;;4975741;28;20172;-74
2022/11/14 09:46:21;;;;;;;21.90;12.45;;;20.70;99.90;;;;;;4975780;28;20175;-74
2022/11/14 09:48:48;;;;;;;16.17;12.40;;;20.40;99.90;;;;;;4975856;28;20200;-75
2022/11/14 09:51:21;;;;;;;17.67;12.63;;;19.80;1.00;;;;;;4974964;28;20172;-74
2022/11/14 09:53:51;;;;;;;18.92;12.52;;;19.50;1.00;;;;;;4975638;28;20670;-72
2022/11/14 09:56:21;;;;;;;19.63;12.75;;;19.20;1.00;;;;;;4976085;28;20211;-73
2022/11/14 09:58:47;;;;;;;18.52;12.82;;;19.70;1.00;;;;;;4974855;28;20790;-73
2022/11/14 10:01:27;;;;;;;19.33;13.15;;;20.40;1.00;;;;;;4975240;28;20227;-73
2022/11/14 10:04:22;;;;;;;14.35;12.00;;;21.00;99.90;;;;;;4974029;28;20562;-72
2022/11/14 10:06:59;;;;;;;15.35;11.73;;;20.40;99.90;;;;;;4985930;28;20226;-71
2022/11/14 10:09:25;;;;;;;14.90;11.70;;;18.90;1.00;;;;;;4994739;28;20302;-71
2022/11/14 10:12:08;;;;;;;16.08;11.73;;;17.60;99.90;;;;;;4994806;28;20246;-72
2022/11/14 10:14:56;;;;;;;16.05;12.13;;;16.30;76.70;;;;;;4994430;28;20241;-70
2022/11/14 10:17:47;;;;;;;15.30;11.77;;;16.00;80.30;;;;;;4994939;28;20584;-72
2022/11/14 10:20:37;;;;;;;15.52;12.40;;;16.50;80.90;;;;;;4994891;28;20214;-71
2022/11/14 10:23:15;;;;;;;16.80;12.57;;;16.90;81.00;;;;;;4994055;28;20642;-71
2022/11/14 10:26:10;;;;;;;17.15;11.65;;;16.80;80.00;;;;;;4993842;28;20189;-71
2022/11/14 10:28:58;;;;;;;15.13;12.80;;;16.90;78.20;;;;;;4994493;28;20548;-71
2022/11/14 10:31:56;;;;;;;18.73;13.05;;;16.60;81.00;;;;;;4994584;28;20175;-72
2022/11/14 10:34:31;;;;;;;15.93;12.60;;;16.90;80.90;;;;;;4994224;28;20223;-71
2022/11/14 10:37:02;;;;;;;16.80;12.40;;;16.80;80.30;;;;;;4994945;28;20222;-72
2022/11/14 10:39:45;;;;;;;15.40;11.98;;;17.10;82.60;;;;;;4994267;28;20234;-71
2022/11/14 10:42:18;;;;;;;17.70;12.02;;;17.00;79.50;;;;;;4994096;28;20190;-70
2022/11/14 10:44:56;;;;;;;15.73;13.00;;;17.30;79.60;;;;;;4994358;28;20178;-70
2022/11/14 10:47:24;;;;;;;14.40;12.35;;;17.40;80.90;;;;;;4994155;28;20171;-70
2022/11/14 10:49:54;;;;;;;16.08;12.25;;;18.30;78.50;;;;;;4992986;28;20286;-71
2022/11/14 10:52:30;;;;;;;16.88;11.82;;;19.10;74.60;;;;;;4993344;28;20254;-71
2022/11/14 10:55:02;;;;;;;19.02;12.50;;;19.30;1.00;;;;;;4994562;28;20258;-71
2022/11/14 10:57:28;;;;;;;15.77;12.07;;;19.20;1.00;;;;;;4993217;28;20625;-71
2022/11/14 10:59:54;;;;;;;14.25;12.70;;;19.30;1.00;;;;;;4993431;28;20179;-71
2022/11/14 11:02:20;;;;;;;14.57;11.82;;;19.70;1.00;;;;;;4992517;28;20632;-70
2022/11/14 11:04:45;;;;;;;14.77;12.32;;;19.00;1.00;;;;;;4993067;28;20274;-71
2022/11/14 11:11:28;;;;;;;14.82;13.05;;;17.70;99.90;;;;;;4991761;28;20206;-70
2022/11/14 11:12:46;;;;;;;19.17;14.05;;;16.80;79.80;;;;;;4993021;28;20174;-70
2022/11/14 11:15:22;;;;;;;16.50;13.38;;;16.00;83.20;;;;;;4993237;28;20209;-69
2022/11/14 11:18:02;;;;;;;17.83;14.02;;;16.30;84.50;;;;;;4992787;28;20171;-69
2022/11/14 11:20:40;;;;;;;19.90;14.48;;;16.30;83.50;;;;;;4992835;28;20214;-71
2022/11/14 11:23:09;;;;;;;18.13;14.30;;;15.80;85.80;;;;;;4992997;28;20185;-69
2022/11/14 11:25:37;;;;;;;17.25;13.90;;;15.10;88.50;;;;;;4994084;28;20175;-70
2022/11/14 11:28:16;;;;;;;17.13;13.07;;;14.60;91.40;;;;;;4993718;28;20674;-69
2022/11/14 11:31:14;;;;;;;18.33;13.93;;;14.90;91.10;;;;;;4992012;28;20186;-70
2022/11/14 11:33:41;;;;;;;15.52;13.65;;;15.30;90.50;;;;;;4954964;28;20266;-70
2022/11/14 11:36:17;;;;;;;18.42;13.80;;;15.20;90.40;;;;;;4955353;28;20226;-68
2022/11/14 11:38:44;;;;;;;18.30;13.90;;;14.60;90.80;;;;;;4955550;28;20179;-69
2022/11/14 11:41:24;;;;;;;16.92;14.63;;;13.90;92.80;;;;;;4955325;28;20667;-68
2022/11/14 11:44:01;;;;;;;16.33;14.60;;;13.30;94.80;;;;;;4970583;28;20214;-68
2022/11/14 11:46:42;;;;;;;21.13;15.50;;;13.10;96.10;;;;;;4970867;28;20184;-68
2022/11/14 11:49:36;;;;;;;18.13;14.43;;;12.90;97.40;;;;;;4970376;28;20223;-69
2022/11/14 11:52:11;;;;;;;21.20;15.27;;;12.70;97.70;;;;;;4964640;28;20258;-68
2022/11/14 11:55:14;;;;;;;19.70;15.00;;;12.80;98.20;;;;;;4971328;28;20314;-68
2022/11/14 11:57:49;;;;;;;18.87;15.23;;;12.80;98.00;;;;;;4951228;28;20228;-68
2022/11/14 12:00:19;;;;;;;21.13;15.60;;;11.90;99.90;;;;;;4954468;28;20183;-67
2022/11/14 12:02:48;;;;;;;23.33;16.50;;;11.80;99.90;;;;;;4971207;28;20756;-68
2022/11/14 12:05:15;;;;;;;23.07;16.67;;;11.90;99.90;;;;;;4971171;28;20188;-68
2022/11/14 12:07:46;;;;;;;21.33;16.63;;;11.60;99.90;;;;;;4962519;28;20206;-68
2022/11/14 12:10:24;;;;;;;22.10;15.87;;;11.70;99.90;;;;;;4972313;28;20215;-70
2022/11/14 12:13:14;;;;;;;21.13;15.33;;;11.40;99.90;;;;;;4972968;28;20198;-70
2022/11/14 12:16:03;;;;;;;24.80;17.03;;;11.50;99.90;;;;;;4982840;28;20197;-71
2022/11/14 12:18:37;;;;;;;21.20;16.30;;;11.30;99.90;;;;;;4990201;28;20179;-70
2022/11/14 12:21:28;;;;;;;23.57;16.90;;;11.10;99.90;;;;;;4992716;28;20245;-69
2022/11/14 12:24:12;;;;;;;21.17;17.17;;;11.00;99.90;;;;;;4995141;28;20681;-68
2022/11/14 12:27:01;;;;;;;23.13;18.03;;;10.90;99.90;;;;;;4996273;28;20167;-68
2022/11/14 12:30:13;;;;;;;22.70;17.90;;;10.60;99.90;;;;;;4989195;28;20204;-67
2022/11/14 12:32:48;;;;;;;27.60;19.43;;;10.30;99.90;;;;;;4981289;28;20198;-67
2022/11/14 12:35:22;;;;;;;28.57;19.33;;;10.00;99.90;;;;;;4995250;28;20244;-68
2022/11/14 12:37:53;;;;;;;24.53;19.00;;;9.80;99.90;;;;;;4992142;28;20178;-67
2022/11/14 12:40:30;;;;;;;28.57;20.20;;;9.70;99.90;;;;;;4995907;28;20171;-69
2022/11/14 12:42:57;;;;;;;25.17;19.00;;;9.30;99.90;;;;;;4996707;28;20174;-68
2022/11/14 12:45:49;;;;;;;28.57;19.70;;;9.10;99.90;;;;;;4995933;28;20255;-68
2022/11/14 12:48:25;;;;;;;29.83;21.37;;;8.90;99.90;;;;;;4994676;28;20242;-69